Time;durP1;ratioP1;P1;durP2;ratioP2;P2;SDS_P1;SDS_P2;PMS_P1;PMS_P2;Temp;Humidity;BMP_temperature;BMP_pressure;BME280_temperature;BME280_humidity;BME280_pressure;Samples;Min_cycle;Max_cycle;Signal;HPM_P1;HPM_P2
2022/12/30 00:01:31;;;;;;;18.33;11.15;;;;;;;;;;10404628;28;20033;-61
2022/12/30 00:06:31;;;;;;;18.02;12.13;;;;;;;;;;10413815;28;20041;-62
2022/12/30 00:11:34;;;;;;;20.20;12.75;;;;;;;;;;10411750;28;20116;-62
2022/12/30 00:33:06;;;;;;;;;;;;;;;;;;10366688;28;19925;-61
2022/12/30 00:38:07;;;;;;;16.20;11.93;;;;;;;;;;10363384;28;19921;-60
2022/12/30 00:43:10;;;;;;;18.70;12.40;;;;;;;;;;10364840;28;20042;-62
2022/12/30 00:58:47;;;;;;;18.13;11.65;;;;;;;;;;10397104;28;20346;-61
2022/12/30 01:03:48;;;;;;;18.42;12.25;;;;;;;;;;10409388;28;20030;-60
2022/12/30 01:08:48;;;;;;;20.13;11.77;;;;;;;;;;10408962;28;20477;-60
2022/12/30 01:13:48;;;;;;;16.40;11.77;;;;;;;;;;10400616;28;20471;-60
2022/12/30 01:18:49;;;;;;;17.85;12.10;;;;;;;;;;10399230;28;20027;-63
2022/12/30 01:23:49;;;;;;;17.75;11.88;;;;;;;;;;10411663;28;20496;-63
2022/12/30 01:28:49;;;;;;;17.92;12.18;;;;;;;;;;10409576;28;20528;-63
2022/12/30 01:33:50;;;;;;;16.13;10.90;;;;;;;;;;10408095;28;20022;-62
2022/12/30 01:38:50;;;;;;;16.02;11.30;;;;;;;;;;10397016;28;20029;-63
2022/12/30 01:43:50;;;;;;;16.90;11.75;;;;;;;;;;10408146;28;20397;-63
2022/12/30 01:48:53;;;;;;;18.90;11.75;;;;;;;;;;10409035;28;20153;-62
2022/12/30 01:53:54;;;;;;;18.98;12.85;;;;;;;;;;10407082;28;20026;-62
2022/12/30 01:58:54;;;;;;;18.10;11.68;;;;;;;;;;10407238;28;20021;-63
2022/12/30 02:03:57;;;;;;;14.95;11.23;;;;;;;;;;10409090;28;20021;-62
2022/12/30 02:08:58;;;;;;;18.67;11.43;;;;;;;;;;10406492;28;20453;-62
2022/12/30 02:13:58;;;;;;;16.25;11.18;;;;;;;;;;10407065;28;20029;-62
2022/12/30 02:19:17;;;;;;;18.27;11.52;;;;;;;;;;10407985;28;20641;-63
2022/12/30 02:24:17;;;;;;;;;;;;;;;;;;10409115;28;20113;-63
2022/12/30 02:29:17;;;;;;;14.02;10.48;;;;;;;;;;10404016;28;19925;-63
2022/12/30 02:34:24;;;;;;;16.63;11.48;;;;;;;;;;10407691;28;20028;-63
2022/12/30 02:39:36;;;;;;;16.23;10.55;;;;;;;;;;10407383;28;20028;-63
2022/12/30 02:44:39;;;;;;;15.80;11.60;;;;;;;;;;10408075;28;20051;-61
2022/12/30 02:49:40;;;;;;;14.82;11.02;;;;;;;;;;10405842;28;20547;-61
2022/12/30 02:54:45;;;;;;;15.82;10.70;;;;;;;;;;10408146;28;20037;-62
2022/12/30 03:05:13;;;;;;;15.38;11.00;;;;;;;;;;10402696;28;20068;-61
2022/12/30 03:15:55;;;;;;;17.35;11.07;;;;;;;;;;10408023;28;20396;-61
2022/12/30 03:20:56;;;;;;;15.38;10.70;;;;;;;;;;10404464;28;20452;-62
2022/12/30 03:31:17;;;;;;;19.15;11.63;;;;;;;;;;10405905;28;20033;-62
2022/12/30 03:36:19;;;;;;;13.43;10.30;;;;;;;;;;10407339;28;20049;-62
2022/12/30 03:41:21;;;;;;;14.30;10.07;;;;;;;;;;10413292;28;20232;-62
2022/12/30 03:46:26;;;;;;;14.02;9.90;;;;;;;;;;10414644;28;20036;-62
2022/12/30 03:51:27;;;;;;;15.35;9.93;;;;;;;;;;10414033;28;20022;-62
2022/12/30 03:56:27;;;;;;;14.00;9.60;;;;;;;;;;10413822;28;20436;-60
2022/12/30 04:01:27;;;;;;;15.80;10.90;;;;;;;;;;10413045;28;20038;-62
2022/12/30 04:06:28;;;;;;;16.35;10.40;;;;;;;;;;10412582;28;20030;-62
2022/12/30 04:11:28;;;;;;;14.20;9.50;;;;;;;;;;10413680;28;20084;-62
2022/12/30 04:16:28;;;;;;;13.75;9.50;;;;;;;;;;10412470;28;20083;-63
2022/12/30 04:21:29;;;;;;;17.07;10.07;;;;;;;;;;10413363;28;20021;-63
2022/12/30 04:26:29;;;;;;;14.68;9.52;;;;;;;;;;10411766;28;20067;-62
2022/12/30 04:31:29;;;;;;;16.73;9.93;;;;;;;;;;10413217;28;20248;-62
2022/12/30 04:36:29;;;;;;;12.88;9.43;;;;;;;;;;10411777;28;20033;-62
2022/12/30 04:41:30;;;;;;;14.20;9.53;;;;;;;;;;10411850;28;20211;-62
2022/12/30 04:46:30;;;;;;;12.85;9.80;;;;;;;;;;10410977;28;20037;-62
2022/12/30 04:51:30;;;;;;;13.40;9.50;;;;;;;;;;10410037;28;20028;-62
2022/12/30 04:56:30;;;;;;;14.48;9.45;;;;;;;;;;10411218;28;20036;-62
2022/12/30 05:01:31;;;;;;;13.75;9.60;;;;;;;;;;10410727;28;20066;-63
2022/12/30 05:06:31;;;;;;;13.88;9.00;;;;;;;;;;10407933;28;20029;-61
2022/12/30 05:11:31;;;;;;;14.10;9.10;;;;;;;;;;10410937;28;20037;-61
2022/12/30 05:16:31;;;;;;;12.63;9.23;;;;;;;;;;10410574;28;20389;-62
2022/12/30 05:21:32;;;;;;;13.48;9.10;;;;;;;;;;10411231;28;20083;-62
2022/12/30 05:26:32;;;;;;;11.90;9.18;;;;;;;;;;10409714;28;20044;-62
2022/12/30 05:31:32;;;;;;;13.02;9.13;;;;;;;;;;10408934;28;20025;-61
2022/12/30 05:36:33;;;;;;;11.10;8.87;;;;;;;;;;10408506;28;20029;-61
2022/12/30 05:41:33;;;;;;;11.00;8.30;;;;;;;;;;10408225;28;20078;-61
2022/12/30 05:46:33;;;;;;;12.10;8.65;;;;;;;;;;10409693;28;20033;-60
2022/12/30 05:51:33;;;;;;;10.70;8.43;;;;;;;;;;10407183;28;20034;-62
2022/12/30 05:56:34;;;;;;;13.33;9.13;;;;;;;;;;10408415;28;20022;-62
2022/12/30 06:01:34;;;;;;;10.40;8.17;;;;;;;;;;10407475;28;20461;-62
2022/12/30 06:06:34;;;;;;;13.27;8.15;;;;;;;;;;10408841;28;20095;-62
2022/12/30 06:11:35;;;;;;;17.75;8.95;;;;;;;;;;10406445;28;20029;-62
2022/12/30 06:16:35;;;;;;;16.85;7.95;;;;;;;;;;10406888;28;20052;-62
2022/12/30 06:21:35;;;;;;;16.70;8.45;;;;;;;;;;10394989;28;20138;-62
2022/12/30 06:26:35;;;;;;;21.48;8.50;;;;;;;;;;10404290;28;20037;-62
2022/12/30 06:31:36;;;;;;;11.82;8.02;;;;;;;;;;10402379;28;20033;-62
2022/12/30 06:36:36;;;;;;;11.32;8.68;;;;;;;;;;10399150;28;20079;-62
2022/12/30 06:41:36;;;;;;;9.50;7.90;;;;;;;;;;10401436;28;20511;-60
2022/12/30 06:46:36;;;;;;;10.73;7.53;;;;;;;;;;10399343;28;20033;-61
2022/12/30 06:51:38;;;;;;;13.15;8.27;;;;;;;;;;10401349;28;20046;-61
2022/12/30 06:56:38;;;;;;;16.42;7.93;;;;;;;;;;10406193;28;20059;-61
2022/12/30 07:01:38;;;;;;;16.23;8.27;;;;;;;;;;10407960;28;20477;-61
2022/12/30 07:06:39;;;;;;;20.80;8.20;;;;;;;;;;10406982;28;20389;-61
2022/12/30 07:11:39;;;;;;;10.18;7.35;;;;;;;;;;10410598;28;20025;-60
2022/12/30 07:16:40;;;;;;;15.80;7.40;;;;;;;;;;10420766;28;20091;-65
2022/12/30 07:21:40;;;;;;;13.48;7.47;;;;;;;;;;10420699;28;20014;-64
2022/12/30 07:26:40;;;;;;;8.27;6.72;;;;;;;;;;10420968;28;20103;-63
2022/12/30 07:31:40;;;;;;;14.25;6.55;;;;;;;;;;10421120;28;20393;-60
2022/12/30 07:36:41;;;;;;;8.43;6.00;;;;;;;;;;10420420;28;20033;-64
2022/12/30 07:41:41;;;;;;;9.13;6.03;;;;;;;;;;10420271;28;20033;-63
2022/12/30 07:46:41;;;;;;;7.53;5.93;;;;;;;;;;10419280;28;20037;-63
2022/12/30 07:51:41;;;;;;;11.27;6.75;;;;;;;;;;10419783;28;20025;-64
2022/12/30 07:56:42;;;;;;;8.02;5.28;;;;;;;;;;10419611;28;20112;-63
2022/12/30 08:01:42;;;;;;;7.40;6.23;;;;;;;;;;10419922;28;20040;-65
2022/12/30 08:06:42;;;;;;;6.38;5.05;;;;;;;;;;10419552;28;20021;-64
2022/12/30 08:11:43;;;;;;;7.68;5.90;;;;;;;;;;10420006;28;20365;-64
2022/12/30 08:16:43;;;;;;;8.57;6.15;;;;;;;;;;10419804;28;20114;-63
2022/12/30 08:21:43;;;;;;;10.68;5.90;;;;;;;;;;10419464;28;20029;-65
2022/12/30 08:26:43;;;;;;;8.73;5.83;;;;;;;;;;10411752;28;20045;-64
2022/12/30 08:31:49;;;;;;;7.32;5.57;;;;;;;;;;10412998;28;20057;-64
2022/12/30 08:36:49;;;;;;;7.30;5.78;;;;;;;;;;10412618;28;20099;-64
2022/12/30 08:41:50;;;;;;;7.63;5.55;;;;;;;;;;10412495;28;20381;-63
2022/12/30 08:46:50;;;;;;;8.53;5.40;;;;;;;;;;10411564;28;20111;-64
2022/12/30 08:51:51;;;;;;;8.85;6.30;;;;;;;;;;10411964;28;20026;-65
2022/12/30 08:56:51;;;;;;;8.10;6.20;;;;;;;;;;10412054;28;20025;-65
2022/12/30 09:01:51;;;;;;;7.57;5.68;;;;;;;;;;10411758;28;20104;-64
2022/12/30 09:06:51;;;;;;;8.88;5.57;;;;;;;;;;10411278;28;20036;-63
2022/12/30 09:11:52;;;;;;;8.13;5.35;;;;;;;;;;10411270;28;20022;-65
2022/12/30 09:16:52;;;;;;;8.20;5.70;;;;;;;;;;10410987;28;20021;-64
2022/12/30 09:21:52;;;;;;;9.10;5.50;;;;;;;;;;10410633;28;20025;-64
2022/12/30 09:26:52;;;;;;;8.77;5.78;;;;;;;;;;10410087;28;20041;-63
2022/12/30 09:31:53;;;;;;;6.72;5.72;;;;;;;;;;10410576;28;20070;-64
2022/12/30 09:36:53;;;;;;;8.02;5.97;;;;;;;;;;10410093;28;20036;-64
2022/12/30 09:47:20;;;;;;;7.00;4.97;;;;;;;;;;10409990;28;20061;-64
2022/12/30 09:52:32;;;;;;;7.55;6.00;;;;;;;;;;10409819;28;20021;-64
2022/12/30 09:57:36;;;;;;;7.70;5.30;;;;;;;;;;10403973;28;20113;-64
2022/12/30 10:02:43;;;;;;;7.05;5.50;;;;;;;;;;10405090;28;20466;-64
2022/12/30 10:07:43;;;;;;;5.85;5.22;;;;;;;;;;10409548;28;20033;-64
2022/12/30 10:12:52;;;;;;;7.13;5.72;;;;;;;;;;10409111;28;20091;-64
2022/12/30 10:18:11;;;;;;;7.78;5.75;;;;;;;;;;10395729;28;20280;-65
2022/12/30 10:23:26;;;;;;;7.22;5.57;;;;;;;;;;10400454;28;20025;-64
2022/12/30 10:28:29;;;;;;;8.63;6.28;;;;;;;;;;10408309;28;20393;-64
2022/12/30 10:33:31;;;;;;;8.52;5.43;;;;;;;;;;10408303;28;20021;-64
2022/12/30 10:38:32;;;;;;;7.15;5.25;;;;;;;;;;10408060;28;20026;-63
2022/12/30 10:43:38;;;;;;;6.78;5.07;;;;;;;;;;10408110;28;20034;-63
2022/12/30 10:48:53;;;;;;;7.75;5.90;;;;;;;;;;10404455;28;20033;-64
2022/12/30 10:53:54;;;;;;;7.10;5.72;;;;;;;;;;10407526;28;20021;-65
2022/12/30 10:59:15;;;;;;;7.32;5.68;;;;;;;;;;10407717;28;20039;-64
2022/12/30 11:04:35;;;;;;;9.00;5.80;;;;;;;;;;10407152;28;20033;-60
2022/12/30 11:09:36;;;;;;;6.90;5.45;;;;;;;;;;10405936;28;20548;-60
2022/12/30 11:14:42;;;;;;;6.50;5.37;;;;;;;;;;10406763;28;20030;-63
2022/12/30 11:19:43;;;;;;;8.02;5.68;;;;;;;;;;10407220;28;20033;-61
2022/12/30 11:24:45;;;;;;;6.90;5.53;;;;;;;;;;10401837;28;20034;-60
2022/12/30 11:29:47;;;;;;;7.28;5.60;;;;;;;;;;10407332;28;20046;-62
2022/12/30 11:34:47;;;;;;;9.43;5.70;;;;;;;;;;10406738;28;20108;-61
2022/12/30 11:39:47;;;;;;;14.27;5.88;;;;;;;;;;10406438;28;20386;-64
2022/12/30 11:44:48;;;;;;;7.63;5.50;;;;;;;;;;10403930;28;20026;-65
2022/12/30 11:49:53;;;;;;;6.35;5.18;;;;;;;;;;10406574;28;20037;-63
2022/12/30 11:54:56;;;;;;;6.15;5.25;;;;;;;;;;10406002;28;20103;-64
2022/12/30 12:00:05;;;;;;;7.18;5.50;;;;;;;;;;10403829;28;20393;-63
2022/12/30 12:05:25;;;;;;;8.82;5.55;;;;;;;;;;10413578;28;20469;-63
2022/12/30 12:10:35;;;;;;;7.88;5.65;;;;;;;;;;10413393;28;20099;-63
2022/12/30 12:15:38;;;;;;;6.65;5.30;;;;;;;;;;10413336;28;20026;-64
2022/12/30 12:20:50;;;;;;;7.82;5.68;;;;;;;;;;10413116;28;20021;-63
2022/12/30 12:25:50;;;;;;;7.93;5.20;;;;;;;;;;10413302;28;20037;-63
2022/12/30 12:31:11;;;;;;;7.28;5.43;;;;;;;;;;10413209;28;20026;-63
2022/12/30 12:36:11;;;;;;;9.02;6.03;;;;;;;;;;10412878;28;20045;-64
2022/12/30 12:41:25;;;;;;;6.28;5.32;;;;;;;;;;10412588;28;20026;-63
2022/12/30 12:46:34;;;;;;;9.18;5.40;;;;;;;;;;10412512;28;20037;-63
2022/12/30 12:51:37;;;;;;;6.63;5.22;;;;;;;;;;10412419;28;20025;-64
2022/12/30 12:56:49;;;;;;;7.57;5.75;;;;;;;;;;10412294;28;20079;-61
2022/12/30 13:01:54;;;;;;;6.82;5.32;;;;;;;;;;10412035;28;20078;-61
2022/12/30 13:06:54;;;;;;;7.47;5.57;;;;;;;;;;10411378;28;20033;-61
2022/12/30 13:11:57;;;;;;;6.68;4.95;;;;;;;;;;10411191;28;20032;-63
2022/12/30 13:16:58;;;;;;;7.63;5.22;;;;;;;;;;10411478;28;20025;-63
2022/12/30 13:22:02;;;;;;;7.53;5.60;;;;;;;;;;10411847;28;20084;-63
2022/12/30 13:27:04;;;;;;;6.40;5.53;;;;;;;;;;10410751;28;20436;-63
2022/12/30 13:32:23;;;;;;;6.97;5.28;;;;;;;;;;10410794;28;20037;-63
2022/12/30 13:37:44;;;;;;;6.60;5.15;;;;;;;;;;10410378;28;20496;-62
2022/12/30 13:42:44;;;;;;;7.20;5.38;;;;;;;;;;10398203;28;20117;-63
2022/12/30 13:47:45;;;;;;;9.45;4.85;;;;;;;;;;10410700;28;20021;-63
2022/12/30 13:52:50;;;;;;;6.82;5.55;;;;;;;;;;10410125;28;20025;-64
2022/12/30 13:57:56;;;;;;;7.00;5.35;;;;;;;;;;10409595;28;20505;-62
2022/12/30 14:02:58;;;;;;;6.15;5.00;;;;;;;;;;10409435;28;20112;-63
2022/12/30 14:07:58;;;;;;;5.93;5.03;;;;;;;;;;10409128;28;20029;-63
2022/12/30 14:13:12;;;;;;;7.55;5.70;;;;;;;;;;10409525;28;20021;-64
2022/12/30 14:18:22;;;;;;;11.35;5.28;;;;;;;;;;10409225;28;20385;-63
2022/12/30 14:23:56;;;;;;;6.82;5.18;;;;;;;;;;10408128;28;20272;-63
2022/12/30 14:28:57;;;;;;;7.63;5.25;;;;;;;;;;10389295;28;20049;-61
2022/12/30 14:33:59;;;;;;;6.05;4.70;;;;;;;;;;10408271;28;20116;-63
2022/12/30 14:39:02;;;;;;;5.78;4.80;;;;;;;;;;10408174;28;20021;-64
2022/12/30 14:44:11;;;;;;;6.28;4.78;;;;;;;;;;10408006;28;20030;-62
2022/12/30 14:49:30;;;;;;;5.75;4.93;;;;;;;;;;10407880;28;20117;-63
2022/12/30 14:54:50;;;;;;;6.43;5.20;;;;;;;;;;10407958;28;20509;-63
2022/12/30 14:59:50;;;;;;;6.28;5.07;;;;;;;;;;10403430;28;20025;-64
2022/12/30 15:04:52;;;;;;;6.13;4.80;;;;;;;;;;10407391;28;20022;-61
2022/12/30 15:09:53;;;;;;;6.72;4.78;;;;;;;;;;10407864;28;20042;-64
2022/12/30 15:14:55;;;;;;;6.53;5.07;;;;;;;;;;10407583;28;20144;-63
2022/12/30 15:19:56;;;;;;;7.43;4.78;;;;;;;;;;10407414;28;20021;-63
2022/12/30 15:24:56;;;;;;;6.18;4.68;;;;;;;;;;10407944;28;20522;-63
2022/12/30 15:30:06;;;;;;;5.93;4.67;;;;;;;;;;10407324;28;20057;-62
2022/12/30 15:35:12;;;;;;;6.82;4.97;;;;;;;;;;10412517;28;20090;-63
2022/12/30 15:40:17;;;;;;;5.15;4.40;;;;;;;;;;10415062;28;20034;-63
2022/12/30 15:45:17;;;;;;;6.22;4.88;;;;;;;;;;10414801;28;20083;-63
2022/12/30 15:50:28;;;;;;;5.55;4.47;;;;;;;;;;10415177;28;20369;-64
2022/12/30 15:55:31;;;;;;;6.13;4.70;;;;;;;;;;10414964;28;20033;-63
2022/12/30 16:00:32;;;;;;;5.63;4.82;;;;;;;;;;10414769;28;20083;-63
2022/12/30 16:05:34;;;;;;;6.87;4.63;;;;;;;;;;10414073;28;20151;-63
2022/12/30 16:10:34;;;;;;;5.05;4.32;;;;;;;;;;10414057;28;21046;-63
2022/12/30 16:15:38;;;;;;;7.53;4.65;;;;;;;;;;10413757;28;20086;-64
2022/12/30 16:20:38;;;;;;;6.70;4.47;;;;;;;;;;10413837;28;20029;-63
2022/12/30 16:25:39;;;;;;;5.82;4.95;;;;;;;;;;10413458;28;20366;-64
2022/12/30 16:30:39;;;;;;;5.07;4.18;;;;;;;;;;10413168;28;20052;-63
2022/12/30 16:35:41;;;;;;;5.95;4.50;;;;;;;;;;10412719;28;20096;-63
2022/12/30 16:40:42;;;;;;;6.97;4.70;;;;;;;;;;10412880;28;20152;-64
2022/12/30 16:45:42;;;;;;;7.30;4.95;;;;;;;;;;10411997;28;20080;-63
2022/12/30 16:50:44;;;;;;;7.40;5.50;;;;;;;;;;10412599;28;20428;-62
2022/12/30 16:55:44;;;;;;;7.43;5.07;;;;;;;;;;10412205;28;20025;-64
2022/12/30 17:00:48;;;;;;;6.67;4.80;;;;;;;;;;10412157;28;20034;-63
2022/12/30 17:05:49;;;;;;;7.07;5.07;;;;;;;;;;10412248;28;20377;-63
2022/12/30 17:10:53;;;;;;;7.00;5.47;;;;;;;;;;10397653;28;20026;-64
2022/12/30 17:15:54;;;;;;;6.78;4.80;;;;;;;;;;10409904;28;20033;-63
2022/12/30 17:20:59;;;;;;;8.40;5.50;;;;;;;;;;10400056;28;20025;-64
2022/12/30 17:25:59;;;;;;;8.57;5.43;;;;;;;;;;10403307;28;20562;-63
2022/12/30 17:31:00;;;;;;;6.50;5.17;;;;;;;;;;10407718;28;20026;-64
2022/12/30 17:36:00;;;;;;;5.60;4.73;;;;;;;;;;10402948;28;20034;-65
2022/12/30 17:41:00;;;;;;;7.30;5.38;;;;;;;;;;10404670;28;20038;-64
2022/12/30 17:46:01;;;;;;;7.50;5.00;;;;;;;;;;10404760;28;20496;-64
2022/12/30 17:51:11;;;;;;;8.40;5.07;;;;;;;;;;10404421;28;20053;-60
2022/12/30 17:56:11;;;;;;;9.07;5.10;;;;;;;;;;10407742;28;20120;-61
2022/12/30 18:01:11;;;;;;;7.97;5.32;;;;;;;;;;10395542;28;20030;-61
2022/12/30 18:06:14;;;;;;;9.23;5.35;;;;;;;;;;10407288;28;20484;-64
2022/12/30 18:11:15;;;;;;;10.55;5.13;;;;;;;;;;10408557;28;20112;-65
2022/12/30 18:16:17;;;;;;;8.32;5.35;;;;;;;;;;10405285;28;20029;-63
2022/12/30 18:21:19;;;;;;;6.65;5.00;;;;;;;;;;10395724;28;20454;-63
2022/12/30 18:26:21;;;;;;;7.85;5.30;;;;;;;;;;10403588;28;20124;-63
2022/12/30 18:31:23;;;;;;;13.48;6.22;;;;;;;;;;10401334;28;20415;-62
2022/12/30 18:36:24;;;;;;;8.05;4.75;;;;;;;;;;10405513;28;20033;-63
2022/12/30 18:41:26;;;;;;;6.80;5.13;;;;;;;;;;10404474;28;20036;-61
2022/12/30 18:46:27;;;;;;;8.93;5.82;;;;;;;;;;10405425;28;20032;-62
2022/12/30 18:51:31;;;;;;;8.68;5.25;;;;;;;;;;10404047;28;20350;-63
2022/12/30 18:56:31;;;;;;;7.65;5.20;;;;;;;;;;10407302;28;20124;-60
2022/12/30 19:01:34;;;;;;;6.38;5.10;;;;;;;;;;10405160;28;20362;-64
2022/12/30 19:06:35;;;;;;;7.25;5.28;;;;;;;;;;10405842;28;20036;-64
2022/12/30 19:11:35;;;;;;;7.38;5.45;;;;;;;;;;10407484;28;20021;-64
2022/12/30 19:16:35;;;;;;;9.98;6.00;;;;;;;;;;10405611;28;20027;-64
2022/12/30 19:21:40;;;;;;;8.63;6.28;;;;;;;;;;10401480;28;20539;-64
2022/12/30 19:26:40;;;;;;;8.15;5.63;;;;;;;;;;10399542;28;20057;-63
2022/12/30 19:31:40;;;;;;;9.77;5.90;;;;;;;;;;10402881;28;20436;-62
2022/12/30 19:36:41;;;;;;;7.40;5.57;;;;;;;;;;10402993;28;20037;-59
2022/12/30 19:41:43;;;;;;;8.85;5.80;;;;;;;;;;10405504;28;20033;-62
2022/12/30 19:46:43;;;;;;;11.55;6.53;;;;;;;;;;10396997;28;20026;-60
2022/12/30 19:51:44;;;;;;;10.75;5.95;;;;;;;;;;10391049;28;20029;-62
2022/12/30 19:56:44;;;;;;;8.02;6.00;;;;;;;;;;10400534;28;20047;-61
2022/12/30 20:01:45;;;;;;;8.90;6.20;;;;;;;;;;10401751;28;20029;-63
2022/12/30 20:06:45;;;;;;;11.57;6.60;;;;;;;;;;10401571;28;20112;-63
2022/12/30 20:11:45;;;;;;;15.20;6.27;;;;;;;;;;10400452;28;20079;-62
2022/12/30 20:16:46;;;;;;;11.13;6.45;;;;;;;;;;10400389;28;20072;-63
2022/12/30 20:21:47;;;;;;;12.68;6.53;;;;;;;;;;10399718;28;20596;-61
2022/12/30 20:26:47;;;;;;;9.10;5.70;;;;;;;;;;10407919;28;20393;-61
2022/12/30 20:31:52;;;;;;;10.35;5.88;;;;;;;;;;10400214;28;20041;-60
2022/12/30 20:36:52;;;;;;;8.98;5.90;;;;;;;;;;10395433;28;20021;-61
2022/12/30 20:41:54;;;;;;;9.57;6.03;;;;;;;;;;10396484;28;20025;-60
2022/12/30 20:46:54;;;;;;;10.80;6.45;;;;;;;;;;10406235;28;20083;-61
2022/12/30 20:51:57;;;;;;;10.02;6.28;;;;;;;;;;10412700;28;20063;-61
2022/12/30 20:56:58;;;;;;;10.13;6.55;;;;;;;;;;10412221;28;20405;-60
2022/12/30 21:01:58;;;;;;;11.70;6.53;;;;;;;;;;10411832;28;20017;-61
2022/12/30 21:06:58;;;;;;;7.22;6.03;;;;;;;;;;10411776;28;20109;-61
2022/12/30 21:11:59;;;;;;;8.88;6.30;;;;;;;;;;10411608;28;20022;-60
2022/12/30 21:16:59;;;;;;;7.43;6.30;;;;;;;;;;10411485;28;20365;-61
2022/12/30 21:21:59;;;;;;;8.60;6.15;;;;;;;;;;10411423;28;20021;-61
2022/12/30 21:26:59;;;;;;;8.57;6.70;;;;;;;;;;10410765;28;20045;-60
2022/12/30 21:32:00;;;;;;;10.00;6.20;;;;;;;;;;10410611;28;20028;-60
2022/12/30 21:37:00;;;;;;;10.13;6.07;;;;;;;;;;10410883;28;20044;-60
2022/12/30 22:03:20;;;;;;;9.80;6.82;;;;;;;;;;10399645;28;20033;-60
2022/12/30 22:08:20;;;;;;;10.23;7.03;;;;;;;;;;10405097;28;20029;-60
2022/12/30 22:13:23;;;;;;;9.70;6.40;;;;;;;;;;10403323;28;20080;-60
2022/12/30 22:18:23;;;;;;;22.20;8.25;;;;;;;;;;10397028;28;20095;-60
2022/12/30 22:23:23;;;;;;;18.40;7.97;;;;;;;;;;10403335;28;20083;-61
2022/12/30 22:28:23;;;;;;;16.33;7.90;;;;;;;;;;10406175;28;20079;-60
2022/12/30 22:33:24;;;;;;;24.10;8.55;;;;;;;;;;10404677;28;20116;-60
2022/12/30 22:38:24;;;;;;;20.42;7.13;;;;;;;;;;10406636;28;20033;-60
2022/12/30 22:43:26;;;;;;;25.85;8.07;;;;;;;;;;10406301;28;20026;-61
2022/12/30 22:48:27;;;;;;;15.73;7.15;;;;;;;;;;10407857;28;20037;-60
2022/12/30 22:53:29;;;;;;;17.47;7.00;;;;;;;;;;10405799;28;20025;-61
2022/12/30 22:58:29;;;;;;;14.65;6.28;;;;;;;;;;10406417;28;20467;-60
2022/12/30 23:03:30;;;;;;;14.70;6.97;;;;;;;;;;10407826;28;20025;-61
2022/12/30 23:08:30;;;;;;;11.38;7.32;;;;;;;;;;10407428;28;20475;-60
2022/12/30 23:18:49;;;;;;;10.13;7.00;;;;;;;;;;10405502;28;20459;-63
2022/12/30 23:29:09;;;;;;;11.57;7.30;;;;;;;;;;10405585;28;20057;-60
2022/12/30 23:34:10;;;;;;;10.10;7.22;;;;;;;;;;10404772;28;20055;-60
2022/12/30 23:39:11;;;;;;;12.15;7.55;;;;;;;;;;10407358;28;20382;-61
2022/12/30 23:44:12;;;;;;;14.00;7.88;;;;;;;;;;10406935;28;20116;-60
2022/12/30 23:49:12;;;;;;;10.73;6.95;;;;;;;;;;10407038;28;20033;-62
2022/12/30 23:54:13;;;;;;;13.20;7.43;;;;;;;;;;10405065;28;20072;-62
2022/12/30 23:59:13;;;;;;;10.73;7.13;;;;;;;;;;10414728;28;20125;-60
